Flight Track Log - Related Links

Times and Time Zones

All times are in EST time to prevent confusion due to time zone crossing. See the XOJ782 flight status page for this flight to view local times or setup timezone preferences in your user account.

Time Position Orientation Groundspeed Altitude Reporting Facility
EST Latitude Longitude Course Direction KTS MPH feet Rate Location/Type
Wed 02:29:46 PM 47.5056 -122.2814 152° Southeast 184 212 1,300  Level Seattle Center
Wed 02:30:01 PM 47.4947 -122.2728 152° Southeast 194 223 2,300 3,316 Climbing Seattle Center
Wed 02:31:02 PM 47.4658 -122.2000 120° Southeast 226 260 5,500 2,852 Climbing Seattle Center
Wed 02:32:03 PM 47.4575 -122.0872 96° East 269 310 8,100 2,705 Climbing Seattle Center
Wed 02:33:04 PM 47.4472 -121.9500 96° East 310 357 11,000 2,607 Climbing Seattle Center
Wed 02:34:05 PM 47.4356 -121.8025 97° East 356 410 13,400 2,508 Climbing Seattle Center
Wed 02:35:06 PM 47.4281 -121.6497 94° East 373 429 16,100 2,213 Climbing Seattle Center
Wed 02:36:07 PM 47.4258 -121.4856 91° East 394 453 17,900 2,016 Climbing Seattle Center
Wed 02:37:08 PM 47.4228 -121.3208 92° East 401 461 20,200 2,066 Climbing Seattle Center
Wed 02:38:09 PM 47.4206 -121.1450 91° East 424 488 22,100 1,918 Climbing Seattle Center
Wed 02:39:10 PM 47.4172 -120.9669 92° East 436 502 24,100 1,869 Climbing Seattle Center
Wed 02:40:11 PM 47.4131 -120.7825 92° East 446 513 25,900 934 Climbing Seattle Center
Wed 02:41:12 PM 47.4097 -120.5833 91° East 475 547 26,000 393 Climbing Seattle Center
Wed 02:42:13 PM 47.3989 -120.3706 94° East 514 592 26,700 1,033 Climbing Seattle Center
Wed 02:43:14 PM 47.3617 -120.1606 105° East 527 606 28,100 1,475 Climbing Seattle Center
Wed 02:44:15 PM 47.3317 -119.9511 102° East 525 604 29,700 1,574 Climbing Seattle Center
Wed 02:45:16 PM 47.3289 -119.7389 91° East 521 600 31,300 1,770 Climbing Seattle Center
Wed 02:46:17 PM 47.3283 -119.4831 90° East 522 601 33,300 1,918 Climbing Seattle Center
Wed 02:47:18 PM 47.3258 -119.2703 91° East 521 600 35,200 1,869 Climbing Seattle Center
Wed 02:48:19 PM 47.3239 -119.0586 91° East 518 596 37,100 1,770 Climbing Seattle Center
Wed 02:49:20 PM 47.3203 -118.8503 91° East 511 588 38,800 1,574 Climbing Seattle Center
Wed 02:50:21 PM 47.3175 -118.6444 91° East 509 586 40,300 1,082 Climbing Seattle Center
Wed 02:51:22 PM 47.3144 -118.4389 91° East 504 580 41,000 344 Climbing Seattle Center
Wed 02:52:23 PM 47.3111 -118.2311 91° East 507 583 41,000  Level Seattle Center
Wed 02:53:24 PM 47.3069 -118.0158 92° East 522 601 41,000  Level Seattle Center
Wed 02:54:25 PM 47.3025 -117.7997 92° East 529 609 41,000  Level Seattle Center
Wed 02:55:26 PM 47.2983 -117.5833 92° East 531 611 41,000  Level Seattle Center
Wed 02:56:27 PM 47.2914 -117.3239 92° East 534 615 41,000 49 Level Seattle Center
Wed 02:57:28 PM 47.2872 -117.1097 92° East 532 612 41,100 295 Climbing Seattle Center
Wed 02:58:29 PM 47.2797 -116.8975 93° East 529 609 41,600 541 Climbing Seattle Center
Wed 02:59:30 PM 47.2742 -116.6875 92° East 525 604 42,200 537 Climbing Seattle Center
Wed 03:00:32 PM 47.2678 -116.4806 93° East 515 593 42,700 390 Climbing Seattle Center
Wed 03:01:33 PM 47.2600 -116.2736 93° East 510 587 43,000 148 Climbing Seattle Center
Wed 03:02:34 PM 47.2522 -116.0675 93° East 508 585 43,000  Level Seattle Center
Wed 03:03:35 PM 47.2450 -115.8600 93° East 510 587 43,000  Level Seattle Center
Wed 03:04:36 PM 47.2358 -115.6383 93° East 513 590 43,000  Level Seattle Center
Wed 03:05:37 PM 47.2269 -115.4331 94° East 508 585 43,000  Level Seattle Center
Wed 03:06:38 PM 47.2181 -115.2283 94° East 505 581 43,000  Level Seattle Center
Wed 03:07:39 PM 47.2075 -114.9822 94° East 506 582 43,000 55 Level Seattle Center
Wed 03:08:27 PM 47.1994 -114.8175 94° East 506 582 43,100 327 Climbing Salt Lake Center
Wed 03:09:29 PM 47.1894 -114.6144 94° East 502 578 43,600 484 Climbing Salt Lake Center
Wed 03:10:31 PM 47.1789 -114.4128 94° East 500 575 44,100 390 Climbing Salt Lake Center
Wed 03:11:32 PM 47.1683 -114.2103 94° East 501 577 44,400 341 Climbing Salt Lake Center
Wed 03:12:34 PM 47.1569 -114.0067 95° East 502 578 44,800 242 Climbing Salt Lake Center
Wed 03:13:36 PM 47.1458 -113.8028 95° East 506 582 44,900 97 Climbing Salt Lake Center
Wed 03:14:38 PM 47.1319 -113.5525 95° East 516 594 45,000 49 Climbing Salt Lake Center
Wed 03:15:39 PM 47.1183 -113.3417 95° East 522 601 45,000  Level Salt Lake Center
Wed 03:16:41 PM 47.1053 -113.1294 95° East 526 605 45,000  Level Salt Lake Center
Wed 03:17:43 PM 47.0919 -112.9139 95° East 532 612 45,000 -49 Level Salt Lake Center
Wed 03:18:44 PM 47.0767 -112.6733 95° East 533 613 44,900  Descending Salt Lake Center
Wed 03:19:46 PM 47.0614 -112.4592 96° East 530 610 45,000  Climbing Salt Lake Center
Wed 03:20:48 PM 47.0467 -112.2483 96° East 524 603 44,900  Descending Salt Lake Center
Wed 03:21:50 PM 47.0308 -112.0350 96° East 530 610 45,000 49 Climbing Salt Lake Center
Wed 03:22:51 PM 47.0150 -111.8211 96° East 532 612 45,000  Level Salt Lake Center
Wed 03:23:53 PM 46.9992 -111.6075 96° East 532 612 45,000  Level Salt Lake Center
Wed 03:24:55 PM 46.9792 -111.3533 96° East 530 610 45,000  Level Salt Lake Center
Wed 03:25:57 PM 46.9625 -111.1400 96° East 533 613 45,000  Level Salt Lake Center
Wed 03:26:58 PM 46.9453 -110.9267 97° East 534 615 45,000  Level Salt Lake Center
Wed 03:29:02 PM 46.9086 -110.4978 97° East 536 617 45,000  Level Salt Lake Center
Wed 03:30:03 PM 46.8900 -110.2828 97° East 537 618 45,000  Level Salt Lake Center
Wed 03:31:05 PM 46.8672 -110.0256 97° East 535 616 45,000  Level Salt Lake Center
Wed 03:32:07 PM 46.8469 -109.8103 98° East 538 619 45,000  Level Salt Lake Center
Wed 03:33:09 PM 46.8306 -109.5911 96° East 544 626 45,000  Level Salt Lake Center
Wed 03:34:10 PM 46.8089 -109.3767 98° East 540 621 45,000 -49 Level Salt Lake Center
Wed 03:35:12 PM 46.7861 -109.1647 99° East 534 615 44,900  Descending Salt Lake Center
Wed 03:36:14 PM 46.7619 -108.9122 98° East 538 619 45,000 49 Climbing Salt Lake Center
Wed 03:37:15 PM 46.7397 -108.6931 98° East 543 625 45,000  Level Salt Lake Center
Wed 03:38:17 PM 46.7167 -108.4775 99° East 542 624 45,000  Level Salt Lake Center
Wed 03:39:19 PM 46.6944 -108.2586 98° East 545 627 45,000  Level Salt Lake Center
Wed 03:40:20 PM 46.6686 -108.0383 100° East 551 634 45,000  Level Salt Lake Center
Wed 03:41:22 PM 46.6444 -107.8200 99° East 548 631 45,000  Level Salt Lake Center
Wed 03:42:24 PM 46.6222 -107.6042 98° East 543 625 45,000  Level Salt Lake Center
Wed 03:43:26 PM 46.5911 -107.3417 100° East 547 629 45,000  Level Salt Lake Center
Wed 03:44:27 PM 46.5656 -107.1222 100° East 550 633 45,000  Level Salt Lake Center
Wed 03:45:29 PM 46.5386 -106.9022 100° East 552 635 45,000  Level Salt Lake Center
Wed 03:46:31 PM 46.5125 -106.6833 100° East 552 635 45,000  Level Salt Lake Center
Wed 03:47:32 PM 46.4861 -106.4653 100° East 551 634 45,000  Level Salt Lake Center
Wed 03:48:34 PM 46.4589 -106.2464 100° East 551 634 45,000  Level Salt Lake Center
Wed 03:49:36 PM 46.4308 -106.0272 100° East 552 635 45,000  Level Salt Lake Center
Wed 03:50:38 PM 46.4017 -105.8089 101° East 553 636 45,000  Level Salt Lake Center
Wed 03:51:39 PM 46.3678 -105.5467 101° East 552 635 45,000  Level Salt Lake Center
Wed 03:52:41 PM 46.3400 -105.3306 100° East 551 634 45,000  Level Salt Lake Center
Wed 03:53:43 PM 46.3100 -105.1128 101° East 551 634 45,000  Level Salt Lake Center
Wed 03:54:44 PM 46.2808 -104.8956 101° East 552 635 45,000  Level Salt Lake Center
Wed 03:55:46 PM 46.2508 -104.6772 101° East 553 636 45,000  Level Salt Lake Center
Wed 03:56:48 PM 46.2194 -104.4594 102° East 554 638 45,000  Level Salt Lake Center
Wed 03:57:49 PM 46.1886 -104.2406 101° East 554 638 45,000  Level Salt Lake Center
Wed 03:58:51 PM 46.1567 -104.0225 102° East 555 639 45,000  Level Salt Lake Center
Wed 03:59:53 PM 46.1189 -103.7617 102° East 557 641 45,000  Level Salt Lake Center
Wed 04:00:54 PM 46.0869 -103.5439 102° East 558 642 45,000  Level Salt Lake Center
Wed 04:01:56 PM 46.0542 -103.3272 102° East 558 642 45,000  Level Salt Lake Center
Wed 04:02:58 PM 46.0208 -103.1117 102° East 557 641 45,000  Level Salt Lake Center
Wed 04:03:48 PM 45.9956 -102.9358 102° East 557 641 45,000 -54 Level Minneapolis Center
Wed 04:04:50 PM 45.9608 -102.7186 103° East 559 643 44,900  Descending Minneapolis Center
Wed 04:05:52 PM 45.9200 -102.4583 103° East 559 643 45,000 48 Climbing Minneapolis Center
Wed 04:06:54 PM 45.8847 -102.2439 103° East 558 642 45,000  Level Minneapolis Center
Wed 04:07:56 PM 45.8489 -102.0264 103° East 560 644 45,000  Level Minneapolis Center
Wed 04:08:57 PM 45.8117 -101.8100 104° East 562 647 45,000  Level Minneapolis Center
Wed 04:09:59 PM 45.7761 -101.5919 103° East 563 648 45,000  Level Minneapolis Center
Wed 04:11:01 PM 45.7383 -101.3750 104° East 564 649 45,000  Level Minneapolis Center
Wed 04:12:03 PM 45.6950 -101.1208 104° East 568 654 45,000  Level Minneapolis Center
Wed 04:13:04 PM 45.6564 -100.9028 104° East 569 655 45,000  Level Minneapolis Center
Wed 04:14:06 PM 45.6178 -100.6856 104° East 569 655 45,000  Level Minneapolis Center
Wed 04:15:08 PM 45.5778 -100.4672 105° East 569 655 45,000  Level Minneapolis Center
Wed 04:16:10 PM 45.5392 -100.2483 104° East 571 657 45,000  Level Minneapolis Center
Wed 04:17:12 PM 45.4900 -99.9883 105° East 570 656 45,000  Level Minneapolis Center
Wed 04:18:14 PM 45.4503 -99.7706 105° East 570 656 45,000  Level Minneapolis Center
Wed 04:19:16 PM 45.4092 -99.5542 105° East 569 655 45,000  Level Minneapolis Center
Wed 04:20:18 PM 45.3678 -99.3392 105° East 569 655 45,000  Level Minneapolis Center
Wed 04:21:20 PM 45.3250 -99.1200 105° East 569 655 45,000  Level Minneapolis Center
Wed 04:22:21 PM 45.2792 -98.9075 107° East 567 652 45,000  Level Minneapolis Center
Wed 04:23:23 PM 45.2267 -98.6486 106° East 568 654 45,000  Level Minneapolis Center
Wed 04:24:25 PM 45.1822 -98.4322 106° East 570 656 45,000  Level Minneapolis Center
Wed 04:25:27 PM 45.1397 -98.2128 105° East 574 661 45,000  Level Minneapolis Center
Wed 04:26:29 PM 45.0997 -97.9922 104° East 577 664 45,000  Level Minneapolis Center
Wed 04:27:31 PM 45.0536 -97.7753 107° East 577 664 45,000  Level Minneapolis Center
Wed 04:28:33 PM 45.0058 -97.5611 107° East 573 659 45,000  Level Minneapolis Center
Wed 04:29:35 PM 44.9525 -97.3003 106° East 576 663 45,000  Level Minneapolis Center
Wed 04:30:37 PM 44.9053 -97.0844 107° East 576 663 45,000  Level Minneapolis Center
Wed 04:31:39 PM 44.8592 -96.8683 107° East 575 662 45,000  Level Minneapolis Center
Wed 04:32:41 PM 44.8114 -96.6511 107° East 578 665 45,000  Level Minneapolis Center
Wed 04:33:44 PM 44.7644 -96.4350 107° East 577 664 45,000  Level Minneapolis Center
Wed 04:34:46 PM 44.7150 -96.2172 108° East 580 667 45,000  Level Minneapolis Center
Wed 04:35:48 PM 44.6678 -96.0003 107° East 579 666 45,000  Level Minneapolis Center
Wed 04:36:50 PM 44.6178 -95.7831 108° East 579 666 45,000  Level Minneapolis Center
Wed 04:37:52 PM 44.5586 -95.5222 108° East 583 671 45,000  Level Minneapolis Center
Wed 04:38:54 PM 44.5083 -95.3058 108° East 583 671 45,000  Level Minneapolis Center
Wed 04:39:56 PM 44.4594 -95.0886 107° East 584 672 45,000  Level Minneapolis Center
Wed 04:40:58 PM 44.4328 -94.8692 100° East 574 661 45,000  Level Minneapolis Center
Wed 04:42:00 PM 44.4008 -94.6292 100° East 578 665 45,000  Level Minneapolis Center
Wed 04:43:02 PM 44.3653 -94.4056 102° East 586 674 45,000  Level Minneapolis Center
Wed 04:44:04 PM 44.3350 -94.1847 101° East 582 670 45,000  Level Minneapolis Center
Wed 04:45:06 PM 44.3039 -93.9658 101° East 581 669 45,000  Level Minneapolis Center
Wed 04:46:08 PM 44.2650 -93.7008 101° East 585 673 45,000  Level Minneapolis Center
Wed 04:47:10 PM 44.2325 -93.4828 102° East 584 672 45,000  Level Minneapolis Center
Wed 04:48:12 PM 44.1992 -93.2631 102° East 585 673 45,000  Level Minneapolis Center
Wed 04:49:14 PM 44.1678 -93.0439 101° East 583 671 45,000  Level Minneapolis Center
Wed 04:50:16 PM 44.1325 -92.8250 103° East 586 674 45,000  Level Minneapolis Center
Wed 04:51:18 PM 44.0906 -92.5556 102° East 589 678 45,000  Level Minneapolis Center
Wed 04:52:20 PM 44.0528 -92.3403 104° East 575 662 45,000  Level Minneapolis Center
Wed 04:53:22 PM 44.0192 -92.1211 102° East 581 669 45,000  Level Minneapolis Center
Wed 04:54:24 PM 43.9842 -91.9014 102° East 584 672 45,000  Level Minneapolis Center
Wed 04:55:26 PM 43.9483 -91.6814 103° East 588 677 45,000  Level Minneapolis Center
Wed 04:56:28 PM 43.9103 -91.4614 103° East 586 674 45,000  Level Minneapolis Center
Wed 04:57:30 PM 43.8578 -91.2017 106° East 584 672 45,000  Level Minneapolis Center
Wed 04:58:32 PM 43.8122 -90.9850 106° East 586 674 45,000  Level Minneapolis Center
Wed 04:59:34 PM 43.7669 -90.7647 106° East 592 681 45,000  Level Minneapolis Center
Wed 05:00:45 PM 43.7122 -90.5103 106° East 583 671 45,000  Level Chicago Center
Wed 05:01:47 PM 43.6656 -90.2950 107° East 586 674 45,000  Level Chicago Center
Wed 05:02:50 PM 43.6194 -90.0783 106° East 591 680 45,000  Level Chicago Center
Wed 05:03:52 PM 43.5736 -89.8650 106° East 584 672 45,000  Level Chicago Center
Wed 05:04:54 PM 43.5203 -89.6556 109° East 581 669 45,000  Level Chicago Center
Wed 05:05:56 PM 43.4469 -89.4072 112° Southeast 584 672 45,000  Level Chicago Center
Wed 05:06:58 PM 43.3897 -89.2033 111° Southeast 576 663 45,000  Level Chicago Center
Wed 05:08:00 PM 43.3289 -88.9989 112° Southeast 579 666 45,000  Level Chicago Center
Wed 05:09:02 PM 43.2600 -88.7661 112° Southeast 582 670 45,000  Level Chicago Center
Wed 05:10:04 PM 43.1997 -88.5622 112° Southeast 581 669 45,000  Level Chicago Center
Wed 05:11:06 PM 43.1431 -88.3706 112° Southeast 586 674 45,000  Level Chicago Center
Wed 05:12:08 PM 43.1003 -88.1564 105° East 588 677 45,000  Level Chicago Center
Wed 05:13:11 PM 43.0733 -87.8908 98° East 589 678 45,000  Level Chicago Center
Wed 05:14:13 PM 43.0492 -87.6697 98° East 590 679 45,000  Level Chicago Center
Wed 05:15:15 PM 43.0236 -87.4486 99° East 592 681 45,000  Level Chicago Center
Wed 05:16:17 PM 43.0003 -87.2283 98° East 589 678 45,000  Level Chicago Center
Wed 05:17:19 PM 42.9742 -87.0086 99° East 590 679 45,000  Level Chicago Center
Wed 05:18:22 PM 42.9442 -86.7439 99° East 591 680 45,000  Level Chicago Center
Wed 05:19:23 PM 42.9292 -86.5219 95° East 591 680 45,000  Level Chicago Center
Wed 05:20:25 PM 42.9150 -86.2986 95° East 595 685 45,000  Level Chicago Center
Wed 05:21:27 PM 42.9006 -86.0817 95° East 592 681 45,000  Level Chicago Center
Wed 05:22:30 PM 42.8808 -85.8236 96° East 588 677 45,000  Level Chicago Center
Wed 05:23:32 PM 42.8639 -85.6031 96° East 592 681 45,000  Level Chicago Center
Wed 05:24:34 PM 42.8472 -85.3800 96° East 596 686 45,000  Level Chicago Center
Wed 05:25:36 PM 42.8294 -85.1564 96° East 596 686 45,000  Level Chicago Center
Wed 05:26:38 PM 42.8119 -84.9308 96° East 600 690 45,000  Level Chicago Center
Wed 05:27:40 PM 42.7903 -84.6608 96° East 600 690 45,000  Level Chicago Center
Wed 05:28:42 PM 42.7703 -84.4361 97° East 600 690 45,000  Level Chicago Center
Wed 05:29:44 PM 42.7511 -84.2117 97° East 598 688 45,000  Level Chicago Center
Wed 05:30:53 PM 42.7272 -83.9664 97° East 603 694 45,000  Level Cleveland Center
Wed 05:31:55 PM 42.7069 -83.7392 97° East 603 694 45,000  Level Cleveland Center
Wed 05:32:57 PM 42.6858 -83.5125 97° East 601 692 45,000  Level Cleveland Center
Wed 05:33:59 PM 42.6592 -83.2383 97° East 604 695 45,000  Level Cleveland Center
Wed 05:35:02 PM 42.6372 -83.0097 97° East 607 699 45,000  Level Cleveland Center
Wed 05:36:04 PM 42.6144 -82.7808 98° East 609 701 45,000  Level Cleveland Center
Wed 05:37:06 PM 42.5919 -82.5522 98° East 610 702 45,000  Level Cleveland Center
Wed 05:38:08 PM 42.5667 -82.3236 98° East 613 705 45,000  Level Cleveland Center
Wed 05:39:10 PM 42.5433 -82.0936 98° East 616 709 45,000  Level Cleveland Center
Wed 05:40:12 PM 42.5136 -81.8194 98° East 613 705 45,000  Level Cleveland Center
Wed 05:41:14 PM 42.4903 -81.6053 98° East 619 712 45,000  Level Cleveland Center
Wed 05:42:16 PM 42.4642 -81.3728 99° East 618 711 45,000  Level Cleveland Center
Wed 05:43:18 PM 42.4381 -81.1417 99° East 616 709 45,000  Level Cleveland Center
Wed 05:44:20 PM 42.4069 -80.8717 99° East 616 709 45,000  Level Cleveland Center
Wed 05:45:22 PM 42.3789 -80.6406 99° East 616 709 45,000 -48 Level Cleveland Center
Wed 05:46:25 PM 42.3514 -80.4067 99° East 620 713 44,900 -432 Descending Cleveland Center
Wed 05:47:27 PM 42.3239 -80.1733 99° East 624 718 44,100 -871 Descending Cleveland Center
Wed 05:48:29 PM 42.2928 -79.9219 99° East 627 722 43,100 -968 Descending Cleveland Center
Wed 05:49:31 PM 42.2619 -79.6900 100° East 629 724 42,100 -919 Descending Cleveland Center
Wed 05:50:33 PM 42.2314 -79.4553 100° East 636 732 41,200 -532 Descending Cleveland Center
Wed 05:51:35 PM 42.1997 -79.2172 100° East 643 740 41,000 -97 Descending Cleveland Center
Wed 05:52:37 PM 42.1544 -78.9861 105° East 638 734 41,000  Level Cleveland Center
Wed 05:53:39 PM 42.0981 -78.7644 109° East 628 723 41,000  Level Cleveland Center
Wed 05:54:41 PM 42.0300 -78.4978 109° East 627 722 41,000 -145 Level Cleveland Center
Wed 05:55:43 PM 41.9736 -78.2758 109° East 626 720 40,700 -1,872 Descending Cleveland Center
Wed 05:56:46 PM 41.9139 -78.0464 109° East 624 718 37,100 -2,736 Descending Cleveland Center
Wed 05:57:48 PM 41.8592 -77.8350 109° East 625 719 35,000 -1,016 Descending Cleveland Center
Wed 05:58:50 PM 41.8003 -77.6094 109° East 637 733 35,000  Level Cleveland Center
Wed 05:59:52 PM 41.7389 -77.3814 110° East 640 736 35,000 -48 Level Cleveland Center
Wed 06:00:54 PM 41.6669 -77.1100 109° East 648 746 34,900 -435 Descending Cleveland Center
Wed 06:01:56 PM 41.6064 -76.8856 110° East 648 746 34,100 -1,113 Descending Cleveland Center
Wed 06:02:58 PM 41.5458 -76.6650 110° East 640 736 32,600 -3,097 Descending Cleveland Center
Wed 06:04:00 PM 41.4831 -76.4378 110° East 636 732 27,700 -3,581 Descending Cleveland Center
Wed 06:05:02 PM 41.4233 -76.2208 110° East 630 725 25,200 -2,419 Descending Cleveland Center
Wed 06:06:04 PM 41.3661 -76.0175 110° East 602 693 22,700 -2,256 Descending Cleveland Center
Wed 06:07:15 PM 41.2856 -75.7572 112° Southeast 578 665 20,200 -7,649 Descending New York Center
Wed 06:08:15 PM 41.2383 -75.5856 110° East 553 636 6,000 -4,000 Descending New York Center
Wed 06:09:15 PM 41.1919 -75.4444 114° Southeast 480 552 12,200 1,650 Climbing New York Center
Wed 06:10:15 PM 41.1417 -75.2950 114° Southeast 449 517 9,300 -1,800 Descending New York Center
Wed 06:11:15 PM 41.0967 -75.1625 114° Southeast 396 456 8,600 -1,100 Descending New York Center
Wed 06:12:15 PM 41.0717 -75.0508 107° East 327 376 7,100 -1,300 Descending New York Center
Wed 06:13:15 PM 41.0672 -74.9378 93° East 306 352 6,000 -950 Descending New York Center
Wed 06:14:15 PM 41.0628 -74.8272 93° East 301 346 5,200 -900 Descending New York Center
Wed 06:15:15 PM 41.0597 -74.7336 92° East 294 338 4,200 -750 Descending New York Center
Wed 06:16:15 PM 41.0550 -74.6206 93° East 278 320 3,700 -600 Descending New York Center
Wed 06:17:15 PM 41.0497 -74.5322 95° East 271 312 3,000 -350 Descending New York Center
Wed 06:18:15 PM 41.0444 -74.4300 94° East 271 312 3,000  Level New York Center
Wed 06:19:15 PM 41.0392 -74.3281 94° East 265 305 3,000 -50 Level New York Center
Wed 06:20:15 PM 41.0356 -74.2425 93° East 253 291 2,900 -500 Descending New York Center
Wed 06:21:15 PM 41.0339 -74.1544 91° East 253 291 2,000 -394 Descending New York Center
Wed 06:22:32 PM 41.0000 -74.0667 117° Southeast 182 209 2,000  Level New York TRACON
Wed 06:23:26 PM 40.9667 -74.0500 159° South 167 192 2,000 -313 Level New York TRACON
Wed 06:24:27 PM 40.9167 -74.0500 180° South 124 143 1,400 -645 Descending New York TRACON
Wed 06:25:27 PM 40.8833 -74.0500 180° South 112 129 700 -700 Descending New York TRACON
Wed 06:27:00 PM 40.8500 -74.0500 158° South  Level FlightAware Approximate
Wed 06:34:00 PM 40.8501 -74.0608 158° South  Level Estimated

Login

Don't have an account? Register now (free) for customized features, flight alerts, and more!